createdAt,value
2023-08-11T00:07:26.928Z,97583.22
2023-08-11T00:09:53.694Z,97585.53
2023-08-11T00:12:20.863Z,97588.69
2023-08-11T00:14:47.773Z,97578.88
2023-08-11T00:17:14.398Z,97578.16
2023-08-11T00:19:42.149Z,97574.84
2023-08-11T00:22:08.804Z,97578.88
2023-08-11T00:24:35.493Z,97568.94
2023-08-11T00:27:03.454Z,97569.38
2023-08-11T00:29:32.076Z,97568.50
2023-08-11T00:32:01.260Z,97566.06
2023-08-11T00:34:28.209Z,97562.00
2023-08-11T00:36:56.273Z,97568.22
2023-08-11T00:39:23.483Z,97569.09
2023-08-11T00:41:50.198Z,97569.38
2023-08-11T00:44:17.522Z,97565.47
2023-08-11T00:46:44.738Z,97565.91
2023-08-11T00:49:11.698Z,97561.41
2023-08-11T00:51:38.486Z,97567.31
2023-08-11T00:54:07.453Z,97556.53
2023-08-11T00:56:34.200Z,97557.78
2023-08-11T00:59:02.081Z,97550.28
2023-08-11T01:01:28.988Z,97556.34
2023-08-11T01:03:56.119Z,97553.63
2023-08-11T01:06:33.685Z,97555.94
2023-08-11T01:09:22.494Z,97558.09
2023-08-11T01:12:26.877Z,97558.53
2023-08-11T01:15:16.472Z,97552.03
2023-08-11T01:17:43.763Z,97556.50
2023-08-11T01:20:17.207Z,97558.66
2023-08-11T01:22:49.010Z,97560.25
2023-08-11T01:25:15.957Z,97557.38
2023-08-11T01:27:55.766Z,97557.34
2023-08-11T01:30:23.547Z,97567.59
2023-08-11T01:32:51.803Z,97555.34
2023-08-11T01:35:29.751Z,97558.94
2023-08-11T01:38:05.754Z,97556.78
2023-08-11T01:40:32.438Z,97560.66
2023-08-11T01:43:03.052Z,97564.13
2023-08-11T01:45:30.293Z,97570.16
2023-08-11T01:47:57.646Z,97569.59
2023-08-11T01:50:25.144Z,97570.16
2023-08-11T01:52:53.785Z,97573.78
2023-08-11T01:55:20.872Z,97569.44
2023-08-11T01:57:57.653Z,97576.22
2023-08-11T02:00:27.034Z,97570.00
2023-08-11T02:02:53.890Z,97572.63
2023-08-11T02:05:20.959Z,97571.00
2023-08-11T02:07:47.976Z,97568.84
2023-08-11T02:10:14.836Z,97562.34
2023-08-11T02:12:41.896Z,97570.13
2023-08-11T02:15:11.917Z,97570.97
2023-08-11T02:17:41.663Z,97565.19
2023-08-11T02:20:35.106Z,97559.44
2023-08-11T02:23:01.891Z,97562.44
2023-08-11T02:25:28.633Z,97564.75
2023-08-11T02:27:55.599Z,97559.84
2023-08-11T02:30:23.476Z,97559.00
2023-08-11T02:32:51.579Z,97557.97
2023-08-11T02:35:18.921Z,97554.94
2023-08-11T02:37:46.424Z,97554.50
2023-08-11T02:40:13.229Z,97556.53
2023-08-11T02:42:51.004Z,97544.72
2023-08-11T02:45:17.828Z,97549.03
2023-08-11T02:47:44.664Z,97539.94
2023-08-11T02:50:12.212Z,97543.09
2023-08-11T02:52:39.110Z,97545.09
2023-08-11T02:55:07.311Z,97545.59
2023-08-11T02:57:35.117Z,97550.03
2023-08-11T03:00:02.677Z,97554.34
2023-08-11T03:02:29.533Z,97554.03
2023-08-11T03:04:56.371Z,97559.22
2023-08-11T03:07:24.256Z,97553.59
2023-08-11T03:09:51.384Z,97556.91
2023-08-11T03:12:18.138Z,97553.13
2023-08-11T03:14:44.976Z,97554.56
2023-08-11T03:17:14.524Z,97556.44
2023-08-11T03:19:41.725Z,97550.66
2023-08-11T03:22:08.737Z,97550.53
2023-08-11T03:24:36.394Z,97554.84
2023-08-11T03:27:03.178Z,97551.06
2023-08-11T03:29:29.912Z,97546.34
2023-08-11T03:31:56.667Z,97553.66
2023-08-11T03:34:23.845Z,97559.28
2023-08-11T03:36:50.535Z,97565.59
2023-08-11T03:39:18.037Z,97561.41
2023-08-11T03:41:44.764Z,97557.25
2023-08-11T03:44:11.579Z,97558.38
2023-08-11T03:46:38.666Z,97566.00
2023-08-11T03:49:07.993Z,97557.66
2023-08-11T03:51:35.893Z,97561.09
2023-08-11T03:54:03.770Z,97555.63
2023-08-11T03:56:33.517Z,97553.56
2023-08-11T03:59:00.337Z,97549.56
2023-08-11T04:01:27.397Z,97550.84
2023-08-11T04:03:54.221Z,97560.00
2023-08-11T04:06:21.000Z,97555.66
2023-08-11T04:08:47.771Z,97560.75
2023-08-11T04:11:14.577Z,97563.25
2023-08-11T04:13:41.403Z,97566.94
2023-08-11T04:16:08.137Z,97567.66
2023-08-11T04:18:35.015Z,97565.00
2023-08-11T04:21:01.716Z,97565.47
2023-08-11T04:23:28.509Z,97570.38
2023-08-11T04:25:55.758Z,97568.50
2023-08-11T04:28:23.354Z,97562.72
2023-08-11T04:30:50.412Z,97579.13
2023-08-11T04:33:17.712Z,97579.72
2023-08-11T04:35:44.828Z,97576.97
2023-08-11T04:38:12.874Z,97584.53
2023-08-11T04:40:41.280Z,97585.41
2023-08-11T04:43:08.115Z,97590.88
2023-08-11T04:45:39.281Z,97591.06
2023-08-11T04:48:07.102Z,97586.72
2023-08-11T04:50:35.734Z,97594.81
2023-08-11T04:53:02.678Z,97595.38
2023-08-11T04:55:31.434Z,97596.88
2023-08-11T04:58:00.634Z,97591.31
2023-08-11T05:00:27.715Z,97593.06
2023-08-11T05:02:55.098Z,97598.25
2023-08-11T05:05:22.797Z,97597.41
2023-08-11T05:07:49.563Z,97596.56
2023-08-11T05:10:16.294Z,97604.97
2023-08-11T05:12:43.045Z,97600.66
2023-08-11T05:15:10.312Z,97602.41
2023-08-11T05:17:37.138Z,97596.22
2023-08-11T05:20:08.478Z,97599.00
2023-08-11T05:22:36.261Z,97602.03
2023-08-11T05:25:04.505Z,97600.59
2023-08-11T05:27:31.493Z,97605.38
2023-08-11T05:29:58.463Z,97606.84
2023-08-11T05:32:25.255Z,97608.72
2023-08-11T05:34:53.840Z,97616.25
2023-08-11T05:37:20.616Z,97615.53
2023-08-11T05:39:47.288Z,97615.66
2023-08-11T05:42:14.213Z,97619.81
2023-08-11T05:44:40.958Z,97618.03
2023-08-11T05:47:09.262Z,97616.66
2023-08-11T05:49:36.233Z,97617.50
2023-08-11T05:52:03.099Z,97615.56
2023-08-11T05:54:29.870Z,97622.13
2023-08-11T05:56:56.805Z,97620.34
2023-08-11T05:59:23.453Z,97621.97
2023-08-11T06:01:50.337Z,97627.78
2023-08-11T06:04:17.837Z,97624.78
2023-08-11T06:06:44.734Z,97624.50
2023-08-11T06:09:11.410Z,97635.94
2023-08-11T06:11:38.286Z,97637.09
2023-08-11T06:14:04.990Z,97644.56
2023-08-11T06:16:31.816Z,97633.31
2023-08-11T06:18:58.598Z,97634.63
2023-08-11T06:21:25.417Z,97641.00
2023-08-11T06:23:52.092Z,97641.97
2023-08-11T06:26:18.765Z,97650.97
2023-08-11T06:28:46.293Z,97649.75
2023-08-11T06:31:13.433Z,97649.72
2023-08-11T06:33:40.189Z,97648.50
2023-08-11T06:36:07.039Z,97646.53
2023-08-11T06:38:33.915Z,97646.03
2023-08-11T06:41:00.786Z,97652.91
2023-08-11T06:43:27.958Z,97649.75
2023-08-11T06:45:54.925Z,97645.81
2023-08-11T06:48:21.642Z,97643.09
2023-08-11T06:50:48.717Z,97641.91
2023-08-11T06:53:15.446Z,97643.16
2023-08-11T06:55:42.188Z,97647.78
2023-08-11T06:58:08.927Z,97643.47
2023-08-11T07:00:37.816Z,97648.31
2023-08-11T07:03:05.223Z,97648.72
2023-08-11T07:05:32.060Z,97642.28
2023-08-11T07:07:58.712Z,97644.00
2023-08-11T07:10:25.471Z,97641.13
2023-08-11T07:12:52.177Z,97641.41
2023-08-11T07:15:18.997Z,97644.56
2023-08-11T07:17:45.954Z,97639.69
2023-08-11T07:20:12.753Z,97642.53
2023-08-11T07:22:40.008Z,97641.06
2023-08-11T07:25:06.924Z,97639.13
2023-08-11T07:27:33.910Z,97647.19
2023-08-11T07:30:01.150Z,97644.25
2023-08-11T07:32:28.141Z,97645.22
2023-08-11T07:34:55.119Z,97647.81
2023-08-11T07:37:21.845Z,97651.00
2023-08-11T07:39:48.691Z,97658.34
2023-08-11T07:42:15.367Z,97658.16
2023-08-11T07:44:42.162Z,97658.03
2023-08-11T07:47:09.044Z,97658.19
2023-08-11T07:49:35.976Z,97661.34
2023-08-11T07:52:02.695Z,97652.44
2023-08-11T07:54:29.599Z,97644.09
2023-08-11T07:56:56.305Z,97659.81
2023-08-11T07:59:23.090Z,97667.25
2023-08-11T08:01:53.335Z,97659.16
2023-08-11T08:04:20.376Z,97670.16
2023-08-11T08:06:47.258Z,97667.66
2023-08-11T08:09:15.918Z,97662.81
2023-08-11T08:11:47.491Z,97670.44
2023-08-11T08:14:15.043Z,97663.84
2023-08-11T08:16:48.564Z,97667.66
2023-08-11T08:19:16.017Z,97673.53
2023-08-11T08:21:43.656Z,97667.72
2023-08-11T08:24:10.634Z,97670.22
2023-08-11T08:26:37.434Z,97670.50
2023-08-11T08:29:05.025Z,97673.00
2023-08-11T08:31:31.757Z,97674.53
2023-08-11T08:33:58.633Z,97684.66
2023-08-11T08:36:25.673Z,97680.91
2023-08-11T08:38:52.685Z,97678.69
2023-08-11T08:41:21.496Z,97673.56
2023-08-11T08:43:48.589Z,97676.50
2023-08-11T08:46:17.221Z,97675.94
2023-08-11T08:48:50.129Z,97683.44
2023-08-11T08:51:17.202Z,97679.19
2023-08-11T08:53:44.193Z,97683.09
2023-08-11T08:56:10.923Z,97680.56
2023-08-11T08:58:37.728Z,97675.31
2023-08-11T09:01:04.843Z,97665.84
2023-08-11T09:03:32.064Z,97671.13
2023-08-11T09:05:58.990Z,97680.69
2023-08-11T09:08:25.728Z,97671.97
2023-08-11T09:10:52.518Z,97670.97
2023-08-11T09:13:19.324Z,97661.31
2023-08-11T09:15:46.097Z,97661.47
2023-08-11T09:18:17.856Z,97662.41
2023-08-11T09:20:48.481Z,97670.22
2023-08-11T09:23:18.290Z,97660.63
2023-08-11T09:25:45.007Z,97653.84
2023-08-11T09:28:11.724Z,97656.69
2023-08-11T09:30:38.779Z,97656.94
2023-08-11T09:33:09.051Z,97653.13
2023-08-11T09:35:36.638Z,97646.00
2023-08-11T09:38:04.202Z,97646.84
2023-08-11T09:40:32.916Z,97645.09
2023-08-11T09:43:00.612Z,97645.28
2023-08-11T09:45:27.341Z,97643.06
2023-08-11T09:47:54.003Z,97646.13
2023-08-11T09:50:21.917Z,97643.50
2023-08-11T09:52:48.684Z,97636.88
2023-08-11T09:55:16.458Z,97639.09
2023-08-11T09:57:44.640Z,97638.88
2023-08-11T10:00:14.674Z,97637.66
2023-08-11T10:02:42.870Z,97634.41
2023-08-11T10:05:09.951Z,97633.72
2023-08-11T10:07:41.186Z,97636.59
2023-08-11T10:10:14.010Z,97631.34
2023-08-11T10:12:49.364Z,97623.75
2023-08-11T10:15:18.568Z,97621.03
2023-08-11T10:17:45.321Z,97621.59
2023-08-11T10:20:12.776Z,97625.31
2023-08-11T10:22:39.492Z,97632.28
2023-08-11T10:25:07.973Z,97629.72
2023-08-11T10:27:40.435Z,97634.00
2023-08-11T10:30:08.758Z,97629.34
2023-08-11T10:32:35.711Z,97635.19
2023-08-11T10:35:02.437Z,97639.91
2023-08-11T10:37:32.647Z,97646.97
2023-08-11T10:40:06.794Z,97645.44
2023-08-11T10:42:33.689Z,97633.78
2023-08-11T10:45:11.772Z,97636.22
2023-08-11T10:47:39.682Z,97640.50
2023-08-11T10:50:10.080Z,97645.84
2023-08-11T10:53:08.774Z,97646.09
2023-08-11T10:55:40.902Z,97646.31
2023-08-11T10:58:15.532Z,97640.66
2023-08-11T11:00:42.582Z,97641.34
2023-08-11T11:03:10.331Z,97641.66
2023-08-11T11:05:37.079Z,97641.84
2023-08-11T11:08:03.876Z,97645.91
2023-08-11T11:10:43.780Z,97647.50
2023-08-11T11:13:16.393Z,97652.16
2023-08-11T11:15:43.154Z,97648.09
2023-08-11T11:18:10.480Z,97648.44
2023-08-11T11:20:38.885Z,97650.91
2023-08-11T11:23:06.601Z,97639.69
2023-08-11T11:25:33.480Z,97647.94
2023-08-11T11:28:00.212Z,97635.28
2023-08-11T11:30:26.866Z,97629.16
2023-08-11T11:32:53.641Z,97634.09
2023-08-11T11:35:20.373Z,97640.44
2023-08-11T11:37:47.517Z,97637.16
2023-08-11T11:40:15.029Z,97639.53
2023-08-11T11:42:42.630Z,97637.78
2023-08-11T11:45:10.693Z,97640.28
2023-08-11T11:47:38.191Z,97634.91
2023-08-11T11:50:08.867Z,97637.69
2023-08-11T11:52:37.743Z,97627.09
2023-08-11T11:55:07.440Z,97634.94
2023-08-11T11:57:35.276Z,97626.34
2023-08-11T12:00:04.430Z,97634.94
2023-08-11T12:02:41.433Z,97623.34
2023-08-11T12:05:09.449Z,97629.50
2023-08-11T12:07:37.524Z,97620.28
2023-08-11T12:10:07.834Z,97622.03
2023-08-11T12:12:34.621Z,97616.47
2023-08-11T12:15:08.512Z,97623.50
2023-08-11T12:17:36.130Z,97623.25
2023-08-11T12:20:11.339Z,97626.16
2023-08-11T12:22:38.281Z,97626.59
2023-08-11T12:25:05.350Z,97625.13
2023-08-11T12:27:32.238Z,97626.25
2023-08-11T12:29:58.924Z,97621.84
2023-08-11T12:32:25.675Z,97627.06
2023-08-11T12:34:52.676Z,97628.97
2023-08-11T12:37:19.442Z,97628.97
2023-08-11T12:39:46.146Z,97619.84
2023-08-11T12:42:13.401Z,97626.16
2023-08-11T12:44:40.573Z,97628.03
2023-08-11T12:47:07.660Z,97623.34
2023-08-11T12:49:34.501Z,97622.63
2023-08-11T12:52:01.402Z,97628.19
2023-08-11T12:54:28.055Z,97622.16
2023-08-11T12:56:54.772Z,97623.72
2023-08-11T12:59:21.454Z,97626.69
2023-08-11T13:01:48.410Z,97616.03
2023-08-11T13:04:15.232Z,97613.31
2023-08-11T13:06:42.041Z,97612.47
2023-08-11T13:09:08.872Z,97614.38
2023-08-11T13:11:35.724Z,97617.47
2023-08-11T13:14:03.646Z,97609.19
2023-08-11T13:16:30.656Z,97604.81
2023-08-11T13:18:57.452Z,97605.69
2023-08-11T13:21:24.303Z,97603.72
2023-08-11T13:23:52.078Z,97608.63
2023-08-11T13:26:18.853Z,97601.66
2023-08-11T13:28:45.557Z,97608.22
2023-08-11T13:31:12.333Z,97605.28
2023-08-11T13:33:39.267Z,97606.53
2023-08-11T13:36:06.288Z,97607.75
2023-08-11T13:38:33.061Z,97603.72
2023-08-11T13:40:59.844Z,97607.13
2023-08-11T13:43:26.551Z,97609.44
2023-08-11T13:45:54.755Z,97591.03
2023-08-11T13:48:24.772Z,97598.75
2023-08-11T13:50:52.532Z,97588.44
2023-08-11T13:53:19.329Z,97594.94
2023-08-11T13:55:46.123Z,97589.91
2023-08-11T13:58:12.978Z,97598.97
2023-08-11T14:00:39.783Z,97591.53
2023-08-11T14:03:06.544Z,97593.47
2023-08-11T14:05:33.329Z,97590.00
2023-08-11T14:08:00.005Z,97579.63
2023-08-11T14:10:27.120Z,97583.91
2023-08-11T14:12:54.352Z,97577.03
2023-08-11T14:15:21.156Z,97565.97
2023-08-11T14:17:48.224Z,97568.28
2023-08-11T14:20:15.149Z,97573.78
2023-08-11T14:22:41.811Z,97570.91
2023-08-11T14:25:08.805Z,97575.78
2023-08-11T14:27:35.489Z,97568.63
2023-08-11T14:30:02.307Z,97561.06
2023-08-11T14:32:29.735Z,97566.59
2023-08-11T14:34:56.866Z,97566.50
2023-08-11T14:37:23.565Z,97567.94
2023-08-11T14:39:50.442Z,97562.38
2023-08-11T14:42:17.622Z,97573.69
2023-08-11T14:44:44.469Z,97568.03
2023-08-11T14:47:15.196Z,97562.47
2023-08-11T14:49:43.941Z,97555.53
2023-08-11T14:52:11.643Z,97566.91
2023-08-11T14:54:38.769Z,97564.88
2023-08-11T14:57:05.503Z,97570.53
2023-08-11T14:59:32.630Z,97560.00
2023-08-11T15:01:59.737Z,97550.88
2023-08-11T15:04:27.876Z,97559.94
2023-08-11T15:06:54.827Z,97556.50
2023-08-11T15:09:21.683Z,97548.75
2023-08-11T15:11:49.262Z,97543.91
2023-08-11T15:14:17.226Z,97543.19
2023-08-11T15:16:44.099Z,97536.84
2023-08-11T15:19:10.815Z,97538.25
2023-08-11T15:21:37.782Z,97543.84
2023-08-11T15:24:04.860Z,97545.97
2023-08-11T15:26:31.598Z,97535.44
2023-08-11T15:29:00.633Z,97533.25
2023-08-11T15:31:27.724Z,97536.09
2023-08-11T15:33:54.425Z,97534.69
2023-08-11T15:36:21.158Z,97527.69
2023-08-11T15:38:48.808Z,97530.13
2023-08-11T15:41:15.526Z,97521.41
2023-08-11T15:43:42.200Z,97523.78
2023-08-11T15:46:09.072Z,97521.44
2023-08-11T15:48:35.948Z,97514.31
2023-08-11T15:51:04.150Z,97511.75
2023-08-11T15:53:31.034Z,97504.06
2023-08-11T15:55:57.809Z,97511.50
2023-08-11T15:58:24.498Z,97497.53
2023-08-11T16:00:52.368Z,97499.66
2023-08-11T16:03:21.475Z,97499.06
2023-08-11T16:05:49.082Z,97489.22
2023-08-11T16:08:15.854Z,97501.75
2023-08-11T16:10:43.243Z,97496.28
2023-08-11T16:13:11.166Z,97490.69
2023-08-11T16:15:38.246Z,97492.00
2023-08-11T16:18:09.003Z,97499.31
2023-08-11T16:20:36.524Z,97499.81
2023-08-11T16:23:04.097Z,97494.47
2023-08-11T16:25:30.825Z,97500.78
2023-08-11T16:27:57.645Z,97489.56
2023-08-11T16:30:24.309Z,97490.97
2023-08-11T16:32:51.123Z,97500.16
2023-08-11T16:35:17.927Z,97490.66
2023-08-11T16:37:44.571Z,97489.44
2023-08-11T16:40:12.023Z,97487.22
2023-08-11T16:42:38.805Z,97486.50
2023-08-11T16:45:05.981Z,97490.00
2023-08-11T16:47:32.733Z,97488.19
2023-08-11T16:49:59.644Z,97493.47
2023-08-11T16:52:26.454Z,97485.75
2023-08-11T16:54:53.146Z,97489.63
2023-08-11T16:57:19.959Z,97494.13
2023-08-11T16:59:46.620Z,97493.78
2023-08-11T17:02:13.535Z,97490.66
2023-08-11T17:04:40.372Z,97494.28
2023-08-11T17:07:07.171Z,97496.97
2023-08-11T17:09:33.855Z,97495.16
2023-08-11T17:12:00.651Z,97491.84
2023-08-11T17:14:27.343Z,97484.59
2023-08-11T17:16:54.296Z,97491.41
2023-08-11T17:19:21.024Z,97486.66
2023-08-11T17:21:47.707Z,97484.81
2023-08-11T17:24:14.334Z,97481.28
2023-08-11T17:26:41.319Z,97479.25
2023-08-11T17:29:07.960Z,97481.16
2023-08-11T17:31:34.988Z,97466.38
2023-08-11T17:34:01.745Z,97468.97
2023-08-11T17:36:29.919Z,97471.34
2023-08-11T17:39:00.007Z,97473.19
2023-08-11T17:41:27.582Z,97470.19
2023-08-11T17:43:54.946Z,97471.34
2023-08-11T17:46:21.924Z,97475.00
2023-08-11T17:48:50.801Z,97474.59
2023-08-11T17:51:17.558Z,97478.88
2023-08-11T17:53:49.767Z,97477.88
2023-08-11T17:56:25.332Z,97475.84
2023-08-11T17:58:52.761Z,97469.06
2023-08-11T18:01:20.462Z,97474.81
2023-08-11T18:03:47.254Z,97472.81
2023-08-11T18:06:13.913Z,97473.91
2023-08-11T18:08:40.633Z,97475.59
2023-08-11T18:11:07.582Z,97490.34
2023-08-11T18:13:34.371Z,97473.59
2023-08-11T18:16:01.148Z,97482.66
2023-08-11T18:18:27.922Z,97479.03
2023-08-11T18:20:57.557Z,97480.91
2023-08-11T18:23:26.544Z,97477.63
2023-08-11T18:25:53.501Z,97479.63
2023-08-11T18:28:20.240Z,97482.81
2023-08-11T18:30:47.010Z,97479.19
2023-08-11T18:33:13.716Z,97476.63
2023-08-11T18:35:40.484Z,97476.81
2023-08-11T18:38:07.236Z,97471.84
2023-08-11T18:40:33.974Z,97468.63
2023-08-11T18:43:00.890Z,97464.78
2023-08-11T18:45:27.529Z,97467.53
2023-08-11T18:47:55.259Z,97467.38
2023-08-11T18:50:22.042Z,97464.19
2023-08-11T18:52:50.803Z,97469.38
2023-08-11T18:55:18.531Z,97465.97
2023-08-11T18:57:45.222Z,97473.06
2023-08-11T19:00:13.826Z,97467.56
2023-08-11T19:02:40.758Z,97469.47
2023-08-11T19:05:07.943Z,97463.06
2023-08-11T19:07:34.725Z,97467.81
2023-08-11T19:10:01.477Z,97469.75
2023-08-11T19:12:28.249Z,97472.00
2023-08-11T19:14:55.096Z,97484.34
2023-08-11T19:17:21.849Z,97471.13
2023-08-11T19:19:48.596Z,97480.97
2023-08-11T19:22:15.481Z,97477.13
2023-08-11T19:24:42.224Z,97475.25
2023-08-11T19:27:10.090Z,97476.22
2023-08-11T19:29:36.798Z,97478.72
2023-08-11T19:32:03.843Z,97485.34
2023-08-11T19:34:30.503Z,97479.00
2023-08-11T19:36:57.268Z,97483.09
2023-08-11T19:39:23.937Z,97480.56
2023-08-11T19:41:50.729Z,97482.63
2023-08-11T19:44:17.537Z,97483.06
2023-08-11T19:46:44.288Z,97489.75
2023-08-11T19:49:10.973Z,97492.53
2023-08-11T19:51:37.951Z,97494.50
2023-08-11T19:54:04.796Z,97488.06
2023-08-11T19:56:31.570Z,97490.75
2023-08-11T19:58:58.333Z,97488.38
2023-08-11T20:01:25.096Z,97493.84
2023-08-11T20:03:51.900Z,97484.53
2023-08-11T20:06:18.720Z,97489.88
2023-08-11T20:08:45.471Z,97484.16
2023-08-11T20:11:12.253Z,97480.41
2023-08-11T20:13:38.955Z,97481.34
2023-08-11T20:16:05.720Z,97474.66
2023-08-11T20:18:32.554Z,97476.63
2023-08-11T20:20:59.276Z,97472.44
2023-08-11T20:23:25.969Z,97478.50
2023-08-11T20:25:52.782Z,97479.81
2023-08-11T20:28:19.428Z,97471.13
2023-08-11T20:30:46.215Z,97469.78
2023-08-11T20:33:13.067Z,97469.13
2023-08-11T20:35:39.907Z,97474.22
2023-08-11T20:38:06.634Z,97472.09
2023-08-11T20:40:34.754Z,97471.69
2023-08-11T20:43:01.892Z,97470.25
2023-08-11T20:45:31.131Z,97464.66
2023-08-11T20:47:58.765Z,97475.50
2023-08-11T20:50:25.531Z,97465.16
2023-08-11T20:52:52.475Z,97460.75
2023-08-11T20:55:19.183Z,97470.81
2023-08-11T20:57:48.540Z,97469.97
2023-08-11T21:00:15.791Z,97466.06
2023-08-11T21:02:42.529Z,97461.69
2023-08-11T21:05:09.422Z,97464.16
2023-08-11T21:07:36.162Z,97464.56
2023-08-11T21:10:03.962Z,97454.94
2023-08-11T21:12:30.763Z,97455.78
2023-08-11T21:14:57.459Z,97455.56
2023-08-11T21:17:24.232Z,97459.44
2023-08-11T21:19:51.139Z,97468.44
2023-08-11T21:22:17.861Z,97470.28
2023-08-11T21:24:44.492Z,97466.00
2023-08-11T21:27:11.694Z,97460.47
2023-08-11T21:29:38.779Z,97459.66
2023-08-11T21:32:06.036Z,97462.31
2023-08-11T21:34:32.714Z,97459.88
2023-08-11T21:37:01.504Z,97460.69
2023-08-11T21:39:28.308Z,97457.31
2023-08-11T21:41:55.059Z,97456.50
2023-08-11T21:44:21.799Z,97457.72
2023-08-11T21:46:48.544Z,97450.03
2023-08-11T21:49:15.373Z,97454.94
2023-08-11T21:51:42.007Z,97450.13
2023-08-11T21:54:08.784Z,97451.38
2023-08-11T21:56:35.520Z,97449.00
2023-08-11T21:59:02.194Z,97448.41
2023-08-11T22:01:28.919Z,97442.38
2023-08-11T22:03:55.739Z,97445.97
2023-08-11T22:06:22.358Z,97443.19
2023-08-11T22:08:49.106Z,97441.16
2023-08-11T22:11:30.195Z,97446.16
2023-08-11T22:14:02.410Z,97453.13
2023-08-11T22:16:29.156Z,97454.75
2023-08-11T22:18:56.064Z,97457.59
2023-08-11T22:21:22.737Z,97456.91
2023-08-11T22:23:49.514Z,97457.53
2023-08-11T22:26:16.167Z,97456.19
2023-08-11T22:28:43.166Z,97454.34
2023-08-11T22:31:09.917Z,97453.63
2023-08-11T22:33:36.697Z,97469.50
2023-08-11T22:36:03.496Z,97457.69
2023-08-11T22:38:30.546Z,97465.56
2023-08-11T22:40:57.206Z,97472.63
2023-08-11T22:43:23.983Z,97468.25
2023-08-11T22:45:50.799Z,97466.59
2023-08-11T22:48:17.556Z,97467.31
2023-08-11T22:50:44.292Z,97458.91
2023-08-11T22:53:11.052Z,97456.28
2023-08-11T22:55:37.707Z,97457.69
2023-08-11T22:58:04.545Z,97446.56
2023-08-11T23:00:31.420Z,97457.69
2023-08-11T23:02:58.307Z,97449.19
2023-08-11T23:05:24.996Z,97454.50
2023-08-11T23:07:55.253Z,97462.88
2023-08-11T23:10:21.931Z,97459.31
2023-08-11T23:12:48.762Z,97457.44
2023-08-11T23:15:15.572Z,97454.78
2023-08-11T23:17:42.223Z,97454.16
2023-08-11T23:20:10.339Z,97449.47
2023-08-11T23:22:37.035Z,97447.22
2023-08-11T23:25:06.335Z,97444.97
2023-08-11T23:27:33.197Z,97435.97
2023-08-11T23:30:00.793Z,97436.47
2023-08-11T23:32:30.543Z,97452.25
2023-08-11T23:34:58.078Z,97455.63
2023-08-11T23:37:24.927Z,97464.34
2023-08-11T23:39:51.656Z,97471.31
2023-08-11T23:42:18.364Z,97473.94
2023-08-11T23:44:45.082Z,97471.09
2023-08-11T23:47:12.292Z,97472.53
2023-08-11T23:49:39.304Z,97466.91
2023-08-11T23:52:06.540Z,97472.94
2023-08-11T23:54:33.537Z,97471.72
2023-08-11T23:57:00.388Z,97467.63
2023-08-11T23:59:27.062Z,97471.19
